Metropolis, IL (62960)

4:52 AM CDT on March 23, 2017 (GMT -0500)
Grahamville | | Change Station

Elev 390 ft 37.11 °N, 88.78 °W | Updated 13 minutes ago

Mostly Cloudy
Mostly Cloudy
41.2 °F
Feels Like 39 °F
N
4.0
Wind Variable Wind from East
Gusts 8.0 mph

Today
High -- | Low -- °F
--% Chance of Precip.
Yesterday
High -- | Low -- °F
Precip. -- in
Pressure 30.31 in
Visibility 10.0 miles
Clouds Mostly Cloudy 8000 ft
Windchill 39 °F
Dew Point 25 °F
Humidity 52%
Rainfall 0.00 in
Snow Depth Not available.
6:53 AM 7:09 PM
Waning Crescent, 24% visible
METAR KM30 230935Z AUTO 09004KT 10SM BKN080 05/M05 A3031 RMK AO2 T00481048
Pressure 30.31 in
Visibility 10.0 miles
Clouds Mostly Cloudy 8000 ft
Windchill 39 °F
Dew Point 25 °F
Humidity 52%
Rainfall 0.00 in
Snow Depth Not available.
6:53 AM 7:09 PM
Waning Crescent, 24% visible
METAR KM30 230935Z AUTO 09004KT 10SM BKN080 05/M05 A3031 RMK AO2 T00481048

Get Severe Weather Alerts

Thanks for signing up!

Be on the lookout for a verification email in your inbox.

You'll start receiving the daily forecast at 8 AM.

×

10-Day Weather Forecast

Almanac

Astronomy

Mar. 23, 2017 Rise Set
Actual Time
Civil Twilight
Nautical Twilight
Astronomical Twilight
Moon
Length of Visible Light
Length of Day
Tomorrow will be .
, % of the Moon is Illuminated

Today's Extremes

State Highs State Lows

Community

WunderPhotos

Upload Photos

1,962,540 photos uploaded!

WunderBlog® & News

Nearby

Air Quality

  Air Quality AQ Index Pollutant
Not available.

Snow Depth

Station Depth Elevation

Earthquake Activity

City Distance Mag. Time & Date
Minimum magnitude displayed is 2.5.

Earthquake Activity

City Distance Mag. Time & Date
Minimum magnitude displayed is 2.5.

Coastal Water Temperatures

Place Temperature

Stations

Nearby Weather Stations

Station Location Temp. Windchill Dew Point Humidity Wind Precip. Elev Updated Type
                   

Watches & Warnings

There are currently no watches in effect.